»·PEaware :: N46571 KBFL-KCMA

N46571 :: KBFL-KCMA

FLIGHT INFORMATION

Flight Status: Arrived
Operator: Privately registered:
United States
More flights under this callsign
Pilot: Anonymous 16342 (16342)
Aircraft: CESSNA 510 CITATION MUSTANG
(C510)
More flights by this aircraft type
Origin: KBFL Meadows
United States
Destination: KCMA Camarillo
United States
More flights between these airports :: More routes between these airports
Route: +MEADO3 GMN V299 FIM
File this flight plan on PilotEdge
Remarks:
Altitude:
(Current/Filed)
11,000ft
Speed:
(Current/Filed)
270kts
Departed: 06-Dec-18 08:39 AM
Arrived: 06-Dec-18 09:19 AM
Distance/Time
Traveled:
73nm/0:40
Distance/Time
To Go:
Arrived

Flight Plot

Page will automatically refresh every two minutes.

Flight plan parsing failed; only flown route is shown


Map Options




Map Legend


Flown Route
Filed Route
Departure Airport
Arrival Airport
Navaid (VOR, NDB)
Fix

Horizontal Profiles

Position Reports

Time Latitude Longitude Heading Altitude Ground
Speed
06-Dec-18 08:17 35.426085 -119.042197 323 509ft 0kts
06-Dec-18 08:18 35.426085 -119.042197 323 509ft 0kts
06-Dec-18 08:19 35.426085 -119.042197 323 509ft 0kts
06-Dec-18 08:20 35.426085 -119.042197 323 509ft 0kts
06-Dec-18 08:21 35.426085 -119.042197 323 509ft 0kts
06-Dec-18 08:22 35.426085 -119.042197 323 509ft 0kts
06-Dec-18 08:23 35.426085 -119.042197 323 509ft 0kts
06-Dec-18 08:24 35.426085 -119.042197 323 509ft 0kts
06-Dec-18 08:25 35.426085 -119.042197 323 509ft 0kts
06-Dec-18 08:26 35.426085 -119.042197 323 509ft 0kts
06-Dec-18 08:27 35.426085 -119.042197 323 509ft 0kts
06-Dec-18 08:28 35.426085 -119.042197 323 509ft 0kts
06-Dec-18 08:29 35.426085 -119.042197 323 509ft 0kts
06-Dec-18 08:30 35.426085 -119.042197 323 509ft 0kts
06-Dec-18 08:31 35.426085 -119.042197 323 509ft 0kts
06-Dec-18 08:32 35.426085 -119.042197 323 509ft 0kts
06-Dec-18 08:33 35.426087 -119.042274 208 509ft 0kts
06-Dec-18 08:34 35.425614 -119.043649 297 509ft 2kts
06-Dec-18 08:35 35.425388 -119.044613 260 509ft 0kts
06-Dec-18 08:36 35.425386 -119.044625 261 509ft 0kts
06-Dec-18 08:37 35.425385 -119.044634 261 509ft 0kts
06-Dec-18 08:38 35.426522 -119.047298 318 509ft 51kts
06-Dec-18 08:39 35.454054 -119.081086 314 1285ft 207kts
06-Dec-18 08:40 35.497210 -119.136657 314 4383ft 225kts
06-Dec-18 08:41 35.541198 -119.192903 314 6004ft 237kts
06-Dec-18 08:42 35.571247 -119.257860 252 6491ft 224kts
06-Dec-18 08:43 35.524311 -119.276303 156 9310ft 199kts
06-Dec-18 08:44 35.473024 -119.246202 155 10988ft 237kts
06-Dec-18 08:45 35.407300 -119.208328 155 10783ft 263kts
06-Dec-18 08:46 35.343107 -119.171204 155 10999ft 260kts
06-Dec-18 08:47 35.284359 -119.137243 155 11000ft 262kts
06-Dec-18 08:48 35.219831 -119.099971 155 10999ft 264kts
06-Dec-18 08:49 35.154611 -119.062363 155 10998ft 264kts
06-Dec-18 08:50 35.088980 -119.024598 155 10997ft 265kts
06-Dec-18 08:51 35.025957 -118.988377 155 10996ft 265kts
06-Dec-18 08:52 34.959521 -118.950293 155 10994ft 265kts
06-Dec-18 08:53 34.894170 -118.912878 155 10993ft 265kts
06-Dec-18 08:54 34.826494 -118.874199 155 10991ft 264kts
06-Dec-18 08:55 34.761141 -118.863260 180 11018ft 262kts
06-Dec-18 08:56 34.687940 -118.866248 182 11016ft 263kts
06-Dec-18 08:57 34.614955 -118.869760 182 11016ft 262kts
06-Dec-18 08:58 34.555568 -118.872444 181 10745ft 272kts
06-Dec-18 08:59 34.483261 -118.875678 181 10035ft 246kts
06-Dec-18 09:00 34.419389 -118.878520 181 10005ft 217kts
06-Dec-18 09:01 34.363674 -118.891210 224 10001ft 206kts
06-Dec-18 09:02 34.359273 -118.960884 272 9566ft 228kts
06-Dec-18 09:03 34.365984 -119.041619 273 8571ft 249kts
06-Dec-18 09:04 34.372667 -119.126732 273 7574ft 257kts
06-Dec-18 09:05 34.366504 -119.208529 248 6571ft 227kts
06-Dec-18 09:06 34.347358 -119.277975 251 5565ft 210kts
06-Dec-18 09:07 34.333495 -119.338706 253 4656ft 205kts
06-Dec-18 09:08 34.314513 -119.400899 216 3970ft 184kts
06-Dec-18 09:09 34.265585 -119.416583 178 3082ft 182kts
06-Dec-18 09:11 34.219818 -119.412593 133 2995ft 152kts
06-Dec-18 09:12 34.206170 -119.362429 93 2284ft 167kts
06-Dec-18 09:13 34.206638 -119.307840 87 2011ft 150kts
06-Dec-18 09:14 34.208388 -119.260670 87 2013ft 132kts
06-Dec-18 09:15 34.210101 -119.215745 86 2006ft 137kts
06-Dec-18 09:16 34.211832 -119.169972 86 1223ft 133kts
06-Dec-18 09:17 34.213456 -119.133753 84 542ft 86kts
06-Dec-18 09:18 34.213808 -119.106798 87 139ft 70kts
06-Dec-18 09:19 34.213723 -119.093638 88 77ft 24kts
06-Dec-18 09:20 34.212549 -119.090981 172 77ft 7kts
06-Dec-18 09:21 34.211175 -119.091808 172 77ft 5kts
06-Dec-18 09:22 34.211048 -119.091802 183 77ft 0kts
06-Dec-18 09:23 34.211047 -119.091802 183 77ft 0kts
06-Dec-18 09:24 34.211045 -119.091802 183 77ft 0kts
06-Dec-18 09:25 34.211044 -119.091802 183 77ft 0kts
06-Dec-18 09:26 34.211042 -119.091803 183 77ft 0kts
06-Dec-18 09:27 34.211041 -119.091803 183 77ft 0kts
06-Dec-18 09:28 34.211039 -119.091803 183 77ft 0kts

Navigation Log

Ident Type
Flight plan parsing failed, navigation log unavailable